GCXOGCLA

Guest
Details From GCXO - Tenerife Norte - Los Rodeos
To GCLA - La Palma
Flight Number -
Tags decoded
Created
Modified
Stats Distance 79 nm / 145 km
Max Altitude 0 ft / 0 m
Waypoints 3
Social Downloads 3
Likes 0
Share VATSIM

Download

Looking for another format? Having issues loading an existing format? Contact us
Advertisement - Login to hide

Notes

Requested: GCXO ARACO GANTA GCLA

Route

GCXO ARACO GCLA

ID Type Via Altitude Latitude Longitude Leg Dist Tot Dist Heading (true) Name
O GCXO APT - 0 ft / 0 m 28.48266˚ -16.34154˚ - 0 nm - Tenerife Norte - Los Rodeos
ARACO FIX - 0 ft / 0 m 28.43252˚ -17.45233˚ 58 nm 58 nm 267° / 267° -
O GCLA APT - 0 ft / 0 m 28.62648˚ -17.75561˚ 19 nm 78 nm 306° / 306° La Palma

Altitude Profile

Advertisement - Login to hide

GCXO

Details ICAO GCXO (TFN)
Name Tenerife Norte - Los Rodeos
Region Canary Islands
Timezone Atlantic/Canary (UTC+1.0)
Stats Elevation 2,076 ft / 633 m (AMSL)
Location 28.482656° -16.341541°
Runways 1
Magnetic Variation 4.950° W

METAR

GCXO 280130Z AUTO 32014KT 9999 BKN005/// BKN012/// BKN019/// 13/11 Q1022

Decode

TAF

TAF AMD GCXO 272210Z 2722/2821 32015KT 9999 BKN015 TX18/2814Z TN12/2805Z PROB30 TEMPO 2722/2809 3000 BCFG BKN005

Decode

Departure Runways

ID Width Length Bearing (true) Bearing (mag) Surface Threshold Offset Overrun Length
12 148 ft / 45 m 11,165 ft / 3,403 m 110.67° 115.62° Asphalt 0 ft / 0 m 197 ft / 60 m
30 148 ft / 45 m 11,165 ft / 3,403 m 290.69° 295.64° Asphalt 0 ft / 0 m 197 ft / 60 m

GCLA

Details ICAO GCLA (SPC)
Name La Palma
Region Canary Islands
Timezone Atlantic/Canary (UTC+1.0)
Stats Elevation 107 ft / 33 m (AMSL)
Location 28.626480° -17.755613°
Runways 1
Magnetic Variation 5.469° W

METAR

GCLA 280130Z AUTO 03015KT 350V060 9999 FEW029/// BKN050/// 18/12 Q1022

Decode

TAF

TAF GCLA 272000Z 2721/2821 35005KT 9999 BKN040 TX21/2814Z TN17/2805Z BECMG 2810/2812 04020KT BECMG 2819/2820 35008KT PROB30 TEMPO 2812/2820 03015G25KT

Decode

Destination Runways

ID Width Length Bearing (true) Bearing (mag) Surface Threshold Offset Overrun Length
01 148 ft / 45 m 7,240 ft / 2,207 m 359.02° 4.49° Asphalt 0 ft / 0 m 279 ft / 85 m
19 148 ft / 45 m 7,240 ft / 2,207 m 179.02° 184.49° Asphalt 0 ft / 0 m 236 ft / 72 m

Popular Alternatives